createdAt,value
2023-03-21T00:02:53.865Z,499.00
2023-03-21T00:06:52.837Z,504.00
2023-03-21T00:10:52.856Z,503.00
2023-03-21T00:14:52.899Z,505.00
2023-03-21T00:18:53.140Z,512.00
2023-03-21T00:22:53.242Z,505.00
2023-03-21T00:26:53.900Z,503.00
2023-03-21T00:30:53.289Z,506.00
2023-03-21T00:35:23.303Z,509.00
2023-03-21T00:38:54.362Z,504.00
2023-03-21T00:42:53.305Z,503.00
2023-03-21T00:47:06.278Z,499.00
2023-03-21T00:50:54.288Z,498.00
2023-03-21T00:54:53.205Z,499.00
2023-03-21T00:58:53.168Z,500.00
2023-03-21T01:03:00.213Z,506.00
2023-03-21T01:06:54.227Z,511.00
2023-03-21T01:10:53.271Z,507.00
2023-03-21T01:14:53.146Z,506.00
2023-03-21T01:18:53.149Z,504.00
2023-03-21T01:22:53.184Z,509.00
2023-03-21T01:26:53.246Z,508.00
2023-03-21T01:30:53.303Z,512.00
2023-03-21T01:34:53.286Z,508.00
2023-03-21T01:38:53.231Z,506.00
2023-03-21T01:42:53.245Z,503.00
2023-03-21T01:47:07.672Z,500.00
2023-03-21T01:50:54.163Z,501.00
2023-03-21T01:54:53.112Z,503.00
2023-03-21T01:58:53.056Z,506.00
2023-03-21T02:02:53.241Z,504.00
2023-03-21T02:06:52.982Z,501.00
2023-03-21T02:10:53.177Z,498.00
2023-03-21T02:14:53.128Z,500.00
2023-03-21T02:18:53.087Z,501.00
2023-03-21T02:22:53.058Z,498.00
2023-03-21T02:27:03.603Z,502.00
2023-03-21T02:30:54.449Z,500.00
2023-03-21T02:34:52.954Z,502.00
2023-03-21T02:38:52.973Z,500.00
2023-03-21T02:42:59.989Z,499.00
2023-03-21T02:47:03.199Z,497.00
2023-03-21T02:50:53.812Z,497.00
2023-03-21T02:54:52.766Z,495.00
2023-03-21T02:58:52.723Z,492.00
2023-03-21T03:03:06.382Z,492.00
2023-03-21T03:06:53.689Z,499.00
2023-03-21T03:10:52.656Z,500.00
2023-03-21T03:15:02.800Z,493.00
2023-03-21T03:18:53.561Z,497.00
2023-03-21T03:22:52.517Z,491.00
2023-03-21T03:26:52.531Z,492.00
2023-03-21T03:31:07.614Z,491.00
2023-03-21T03:34:53.575Z,495.00
2023-03-21T03:38:52.547Z,494.00
2023-03-21T03:42:52.539Z,489.00
2023-03-21T03:46:52.582Z,496.00
2023-03-21T03:50:52.614Z,496.00
2023-03-21T03:54:52.654Z,493.00
2023-03-21T03:58:53.198Z,496.00
2023-03-21T04:02:52.816Z,496.00
2023-03-21T04:06:52.883Z,496.00
2023-03-21T04:10:52.892Z,498.00
2023-03-21T04:14:53.309Z,494.00
2023-03-21T04:18:53.178Z,493.00
2023-03-21T04:22:53.140Z,495.00
2023-03-21T04:26:53.094Z,494.00
2023-03-21T04:31:02.515Z,494.00
2023-03-21T04:34:54.027Z,497.00
2023-03-21T04:38:52.998Z,498.00
2023-03-21T04:42:52.949Z,500.00
2023-03-21T04:46:52.893Z,495.00
2023-03-21T04:50:52.884Z,496.00
2023-03-21T04:54:52.836Z,495.00
2023-03-21T04:58:52.779Z,494.00
2023-03-21T05:02:52.757Z,489.00
2023-03-21T05:06:52.712Z,491.00
2023-03-21T05:10:52.694Z,492.00
2023-03-21T05:14:52.631Z,491.00
2023-03-21T05:18:52.602Z,494.00
2023-03-21T05:22:52.585Z,490.00
2023-03-21T05:26:52.811Z,486.00
2023-03-21T05:30:52.653Z,488.00
2023-03-21T05:34:52.528Z,493.00
2023-03-21T05:38:52.512Z,487.00
2023-03-21T05:42:52.506Z,489.00
2023-03-21T05:46:52.451Z,492.00
2023-03-21T05:50:52.406Z,495.00
2023-03-21T05:54:52.362Z,496.00
2023-03-21T05:58:52.331Z,497.00
2023-03-21T06:02:52.322Z,495.00
2023-03-21T06:06:52.265Z,496.00
2023-03-21T06:10:52.212Z,500.00
2023-03-21T06:14:52.261Z,501.00
2023-03-21T06:18:52.271Z,498.00
2023-03-21T06:22:52.272Z,498.00
2023-03-21T06:26:52.291Z,505.00
2023-03-21T06:30:52.034Z,708.00
2023-03-21T06:34:52.271Z,778.00
2023-03-21T06:38:51.942Z,838.00
2023-03-21T06:42:52.810Z,816.00
2023-03-21T06:46:52.855Z,721.00
2023-03-21T06:50:52.315Z,709.00
2023-03-21T06:54:52.440Z,704.00
2023-03-21T06:58:52.534Z,692.00
2023-03-21T07:02:52.854Z,747.00
2023-03-21T07:06:52.754Z,716.00
2023-03-21T07:10:52.885Z,727.00
2023-03-21T07:14:53.009Z,738.00
2023-03-21T07:18:53.147Z,725.00
2023-03-21T07:22:53.219Z,636.00
2023-03-21T07:26:53.217Z,633.00
2023-03-21T07:30:53.353Z,735.00
2023-03-21T07:34:53.790Z,809.00
2023-03-21T07:38:53.594Z,803.00
2023-03-21T07:42:53.810Z,802.00
2023-03-21T07:46:53.950Z,847.00
2023-03-21T07:50:54.016Z,967.00
2023-03-21T07:54:54.293Z,1039.00
2023-03-21T07:58:54.164Z,1102.00
2023-03-21T08:02:57.162Z,1134.00
2023-03-21T08:06:54.334Z,1179.00
2023-03-21T08:10:54.282Z,1180.00
2023-03-21T08:14:54.305Z,1091.00
2023-03-21T08:18:54.328Z,1072.00
2023-03-21T08:22:54.343Z,1041.00
2023-03-21T08:26:54.259Z,1027.00
2023-03-21T08:30:55.827Z,1066.00
2023-03-21T08:34:54.818Z,916.00
2023-03-21T08:38:54.842Z,858.00
2023-03-21T08:42:54.669Z,868.00
2023-03-21T08:46:54.829Z,788.00
2023-03-21T08:50:54.573Z,778.00
2023-03-21T08:54:54.553Z,767.00
2023-03-21T08:58:54.511Z,742.00
2023-03-21T09:02:54.488Z,714.00
2023-03-21T09:06:54.447Z,687.00
2023-03-21T09:10:54.421Z,670.00
2023-03-21T09:14:54.363Z,658.00
2023-03-21T09:18:54.399Z,648.00
2023-03-21T09:22:54.355Z,698.00
2023-03-21T09:26:54.286Z,864.00
2023-03-21T09:30:54.287Z,966.00
2023-03-21T09:34:54.227Z,1091.00
2023-03-21T09:38:54.374Z,1141.00
2023-03-21T09:42:54.123Z,1192.00
2023-03-21T09:46:54.125Z,1197.00
2023-03-21T09:50:54.376Z,1111.00
2023-03-21T09:54:54.055Z,1093.00
2023-03-21T09:58:54.004Z,1071.00
2023-03-21T10:02:57.302Z,1047.00
2023-03-21T10:06:54.352Z,1002.00
2023-03-21T10:10:54.410Z,1002.00
2023-03-21T10:14:57.113Z,982.00
2023-03-21T10:18:53.819Z,982.00
2023-03-21T10:22:53.852Z,988.00
2023-03-21T10:26:53.890Z,973.00
2023-03-21T10:30:53.881Z,990.00
2023-03-21T10:34:53.881Z,981.00
2023-03-21T10:38:53.916Z,957.00
2023-03-21T10:42:53.625Z,917.00
2023-03-21T10:46:53.775Z,893.00
2023-03-21T10:50:53.613Z,862.00
2023-03-21T10:54:53.528Z,840.00
2023-03-21T10:58:53.484Z,815.00
2023-03-21T11:02:53.595Z,785.00
2023-03-21T11:06:53.485Z,769.00
2023-03-21T11:10:53.474Z,753.00
2023-03-21T11:14:53.378Z,738.00
2023-03-21T11:18:53.458Z,721.00
2023-03-21T11:22:53.887Z,698.00
2023-03-21T11:26:53.910Z,861.00
2023-03-21T11:30:53.822Z,949.00
2023-03-21T11:34:53.810Z,1009.00
2023-03-21T11:38:53.882Z,1053.00
2023-03-21T11:42:53.919Z,1073.00
2023-03-21T11:46:54.403Z,1050.00
2023-03-21T11:50:54.488Z,1009.00
2023-03-21T11:54:54.013Z,923.00
2023-03-21T11:58:54.099Z,940.00
2023-03-21T12:02:54.052Z,977.00
2023-03-21T12:06:54.445Z,921.00
2023-03-21T12:10:54.206Z,944.00
2023-03-21T12:14:54.301Z,897.00
2023-03-21T12:18:54.433Z,720.00
2023-03-21T12:22:54.932Z,663.00
2023-03-21T12:26:54.939Z,629.00
2023-03-21T12:30:54.793Z,588.00
2023-03-21T12:34:54.920Z,573.00
2023-03-21T12:38:55.019Z,556.00
2023-03-21T12:42:54.967Z,540.00
2023-03-21T12:46:55.062Z,527.00
2023-03-21T12:50:55.192Z,538.00
2023-03-21T12:54:55.329Z,550.00
2023-03-21T12:58:55.272Z,541.00
2023-03-21T13:02:55.467Z,543.00
2023-03-21T13:06:55.571Z,549.00
2023-03-21T13:10:56.022Z,551.00
2023-03-21T13:14:55.963Z,546.00
2023-03-21T13:18:55.973Z,546.00
2023-03-21T13:22:55.905Z,548.00
2023-03-21T13:26:55.908Z,549.00
2023-03-21T13:30:55.817Z,552.00
2023-03-21T13:34:55.780Z,546.00
2023-03-21T13:38:55.753Z,548.00
2023-03-21T13:42:55.765Z,553.00
2023-03-21T13:46:55.799Z,545.00
2023-03-21T13:50:55.971Z,538.00
2023-03-21T13:54:55.640Z,533.00
2023-03-21T13:58:55.793Z,532.00
2023-03-21T14:02:55.706Z,533.00
2023-03-21T14:06:55.781Z,532.00
2023-03-21T14:10:55.653Z,529.00
2023-03-21T14:14:56.422Z,529.00
2023-03-21T14:18:56.090Z,526.00
2023-03-21T14:22:55.627Z,522.00
2023-03-21T14:26:55.718Z,520.00
2023-03-21T14:30:55.944Z,518.00
2023-03-21T14:34:55.860Z,517.00
2023-03-21T14:38:56.004Z,520.00
2023-03-21T14:42:56.012Z,516.00
2023-03-21T14:46:55.976Z,518.00
2023-03-21T14:50:55.982Z,518.00
2023-03-21T14:54:55.942Z,517.00
2023-03-21T14:58:55.961Z,513.00
2023-03-21T15:02:56.072Z,514.00
2023-03-21T15:06:55.987Z,516.00
2023-03-21T15:11:06.303Z,514.00
2023-03-21T15:14:56.921Z,505.00
2023-03-21T15:18:55.987Z,505.00
2023-03-21T15:22:55.838Z,510.00
2023-03-21T15:26:55.796Z,512.00
2023-03-21T15:30:56.016Z,509.00
2023-03-21T15:34:55.875Z,509.00
2023-03-21T15:38:55.819Z,509.00
2023-03-21T15:42:55.784Z,509.00
2023-03-21T15:46:55.863Z,513.00
2023-03-21T15:50:55.895Z,511.00
2023-03-21T15:54:55.923Z,509.00
2023-03-21T15:58:55.859Z,511.00
2023-03-21T16:02:55.860Z,508.00
2023-03-21T16:06:55.923Z,507.00
2023-03-21T16:10:55.857Z,507.00
2023-03-21T16:14:55.902Z,504.00
2023-03-21T16:18:55.949Z,506.00
2023-03-21T16:22:55.944Z,507.00
2023-03-21T16:26:55.993Z,504.00
2023-03-21T16:30:56.035Z,503.00
2023-03-21T16:34:56.088Z,511.00
2023-03-21T16:38:56.060Z,506.00
2023-03-21T16:42:56.139Z,505.00
2023-03-21T16:46:56.222Z,505.00
2023-03-21T16:50:56.233Z,505.00
2023-03-21T16:54:56.244Z,501.00
2023-03-21T16:58:56.305Z,498.00
2023-03-21T17:02:56.370Z,499.00
2023-03-21T17:06:56.445Z,497.00
2023-03-21T17:10:56.445Z,493.00
2023-03-21T17:14:56.467Z,495.00
2023-03-21T17:18:56.532Z,496.00
2023-03-21T17:22:56.376Z,497.00
2023-03-21T17:26:56.315Z,499.00
2023-03-21T17:30:56.304Z,503.00
2023-03-21T17:34:56.244Z,501.00
2023-03-21T17:38:56.208Z,499.00
2023-03-21T17:42:56.195Z,500.00
2023-03-21T17:46:56.127Z,502.00
2023-03-21T17:50:56.106Z,501.00
2023-03-21T17:54:56.052Z,498.00
2023-03-21T17:58:56.043Z,502.00
2023-03-21T18:02:55.980Z,504.00
2023-03-21T18:06:55.937Z,502.00
2023-03-21T18:10:55.909Z,498.00
2023-03-21T18:14:55.838Z,499.00
2023-03-21T18:18:55.806Z,497.00
2023-03-21T18:22:55.864Z,506.00
2023-03-21T18:26:55.956Z,509.00
2023-03-21T18:31:09.631Z,510.00
2023-03-21T18:34:56.989Z,514.00
2023-03-21T18:38:55.907Z,512.00
2023-03-21T18:43:45.898Z,508.00
2023-03-21T18:46:56.883Z,505.00
2023-03-21T18:50:55.828Z,507.00
2023-03-21T18:54:55.778Z,510.00
2023-03-21T18:58:55.742Z,505.00
2023-03-21T19:03:09.905Z,514.00
2023-03-21T19:06:56.656Z,518.00
2023-03-21T19:10:59.530Z,517.00
2023-03-21T19:14:56.609Z,515.00
2023-03-21T19:18:57.205Z,513.00
2023-03-21T19:22:55.517Z,512.00
2023-03-21T19:26:55.500Z,516.00
2023-03-21T19:30:55.425Z,517.00
2023-03-21T19:34:55.450Z,518.00
2023-03-21T19:38:55.521Z,521.00
2023-03-21T19:42:57.411Z,535.00
2023-03-21T19:46:55.742Z,531.00
2023-03-21T19:54:56.674Z,533.00
2023-03-21T19:58:55.674Z,538.00
2023-03-21T20:02:55.695Z,546.00
2023-03-21T20:06:55.584Z,543.00
2023-03-21T20:10:55.513Z,540.00
2023-03-21T20:15:10.363Z,538.00
2023-03-21T20:18:56.483Z,536.00
2023-03-21T20:23:11.554Z,533.00
2023-03-21T20:26:56.459Z,535.00
2023-03-21T20:30:55.364Z,533.00
2023-03-21T20:35:07.256Z,535.00
2023-03-21T20:38:56.298Z,533.00
2023-03-21T20:42:55.491Z,530.00
2023-03-21T20:46:55.225Z,532.00
2023-03-21T20:51:00.387Z,531.00
2023-03-21T20:54:56.173Z,533.00
2023-03-21T20:59:11.884Z,527.00
2023-03-21T21:02:56.082Z,527.00
2023-03-21T21:06:55.023Z,525.00
2023-03-21T21:11:49.740Z,522.00
2023-03-21T21:14:55.944Z,523.00
2023-03-21T21:18:54.913Z,522.00
2023-03-21T21:22:59.960Z,521.00
2023-03-21T21:26:55.823Z,527.00
2023-03-21T21:30:54.803Z,521.00
2023-03-21T21:34:54.742Z,518.00
2023-03-21T21:38:54.725Z,515.00
2023-03-21T21:42:54.692Z,515.00
2023-03-21T21:46:54.761Z,515.00
2023-03-21T21:50:54.792Z,515.00
2023-03-21T21:54:54.798Z,514.00
2023-03-21T21:58:54.859Z,513.00
2023-03-21T22:02:54.958Z,516.00
2023-03-21T22:06:55.068Z,517.00
2023-03-21T22:10:55.150Z,516.00
2023-03-21T22:14:55.224Z,509.00
2023-03-21T22:18:55.404Z,504.00
2023-03-21T22:22:55.427Z,507.00
2023-03-21T22:26:55.506Z,502.00
2023-03-21T22:30:55.594Z,504.00
2023-03-21T22:34:55.651Z,504.00
2023-03-21T22:38:55.716Z,502.00
2023-03-21T22:42:55.806Z,507.00
2023-03-21T22:46:55.847Z,508.00
2023-03-21T22:50:55.886Z,509.00
2023-03-21T22:54:55.954Z,503.00
2023-03-21T22:58:56.003Z,502.00
2023-03-21T23:02:56.064Z,506.00
2023-03-21T23:06:56.033Z,512.00
2023-03-21T23:10:55.995Z,512.00
2023-03-21T23:14:55.937Z,510.00
2023-03-21T23:18:56.004Z,506.00
2023-03-21T23:22:55.929Z,505.00
2023-03-21T23:26:55.909Z,505.00
2023-03-21T23:30:55.946Z,508.00
2023-03-21T23:34:55.826Z,503.00
2023-03-21T23:38:55.823Z,505.00
2023-03-21T23:42:55.759Z,506.00
2023-03-21T23:46:55.740Z,505.00
2023-03-21T23:50:55.688Z,505.00
2023-03-21T23:54:55.674Z,504.00
2023-03-21T23:58:55.591Z,497.00
